Time;durP1;ratioP1;P1;durP2;ratioP2;P2;SDS_P1;SDS_P2;PMS_P1;PMS_P2;Temp;Humidity;BMP_temperature;BMP_pressure;BME280_temperature;BME280_humidity;BME280_pressure;Samples;Min_cycle;Max_cycle;Signal;HPM_P1;HPM_P2
2023/05/09 00:01:21;;;;;;;0.20;0.20;;;;;;;20.18;51.34;101389.53;5130840;27;20050;-47
2023/05/09 00:03:47;;;;;;;0.20;0.20;;;;;;;20.18;51.11;101384.00;5093940;28;20100;-45
2023/05/09 00:06:14;;;;;;;0.20;0.20;;;;;;;20.18;51.29;101385.94;5113765;28;20095;-43
2023/05/09 00:08:40;;;;;;;0.30;0.30;;;;;;;20.17;51.12;101381.50;5096000;28;20039;-45
2023/05/09 00:11:06;;;;;;;0.20;0.20;;;;;;;20.17;51.19;101382.34;5129182;27;20047;-46
2023/05/09 00:13:33;;;;;;;0.20;0.20;;;;;;;20.18;51.17;101384.00;5134855;27;20454;-44
2023/05/09 00:15:59;;;;;;;0.20;0.20;;;;;;;20.18;51.05;101381.22;5115036;27;20039;-44
2023/05/09 00:18:27;;;;;;;0.20;0.20;;;;;;;20.17;51.12;101387.88;5095339;28;20082;-46
2023/05/09 00:20:52;;;;;;;0.20;0.20;;;;;;;20.17;51.35;101374.03;5127457;27;20478;-46
2023/05/09 00:23:18;;;;;;;0.20;0.20;;;;;;;20.17;51.21;101376.81;5115469;27;20057;-46
2023/05/09 00:25:44;;;;;;;0.20;0.20;;;;;;;20.17;50.90;101365.75;5095631;28;20430;-45
2023/05/09 00:28:10;;;;;;;0.20;0.20;;;;;;;20.18;51.30;101370.16;5092068;28;20059;-46
2023/05/09 00:30:35;;;;;;;0.20;0.20;;;;;;;20.18;51.08;101361.03;5116111;27;20144;-46
2023/05/09 00:33:01;;;;;;;0.20;0.20;;;;;;;20.17;51.30;101357.44;5134487;27;20068;-44
2023/05/09 00:35:27;;;;;;;0.20;0.20;;;;;;;20.17;51.19;101362.16;5119780;27;20148;-44
2023/05/09 00:37:53;;;;;;;0.28;0.28;;;;;;;20.17;51.09;101359.38;5113147;28;20066;-44
2023/05/09 00:40:18;;;;;;;0.20;0.20;;;;;;;20.16;51.07;101353.00;5122126;27;20042;-45
2023/05/09 00:42:44;;;;;;;0.20;0.20;;;;;;;20.17;51.26;101348.31;5134172;27;20046;-45
2023/05/09 00:45:10;;;;;;;0.20;0.20;;;;;;;20.17;51.19;101342.78;5122463;27;20302;-44
2023/05/09 00:47:36;;;;;;;0.20;0.20;;;;;;;20.17;51.16;101342.78;5113288;27;20043;-47
2023/05/09 00:50:02;;;;;;;0.30;0.30;;;;;;;20.17;51.10;101349.16;5095155;28;20055;-44
2023/05/09 00:52:28;;;;;;;0.20;0.20;;;;;;;20.17;51.05;101340.03;5113774;28;20058;-45
2023/05/09 00:54:54;;;;;;;0.20;0.20;;;;;;;20.17;51.35;101338.09;5112921;27;20074;-49
2023/05/09 00:57:21;;;;;;;0.20;0.20;;;;;;;20.17;51.12;101334.50;5094753;28;20043;-47
2023/05/09 00:59:47;;;;;;;0.20;0.20;;;;;;;20.16;51.17;101322.56;5097849;27;20082;-45
2023/05/09 01:02:15;;;;;;;0.20;0.20;;;;;;;20.16;50.94;101322.56;5115132;27;20092;-43
2023/05/09 01:04:41;;;;;;;0.20;0.20;;;;;;;20.16;51.16;101327.28;5094739;28;20503;-46
2023/05/09 01:07:30;;;;;;;0.30;0.30;;;;;;;20.16;50.93;101327.28;5112674;28;20330;-44
2023/05/09 01:10:20;;;;;;;0.20;0.20;;;;;;;20.16;51.16;101321.75;5118326;27;20069;-44
2023/05/09 01:12:51;;;;;;;0.20;0.20;;;;;;;20.16;51.09;101321.75;5119664;27;20046;-45
2023/05/09 01:15:23;;;;;;;0.20;0.20;;;;;;;20.15;51.18;101322.88;5104391;28;20487;-44
2023/05/09 01:17:57;;;;;;;0.20;0.20;;;;;;;20.16;51.21;101316.22;5094518;28;20093;-44
2023/05/09 01:20:30;;;;;;;0.20;0.20;;;;;;;20.16;51.33;101314.28;5122063;27;20054;-45
2023/05/09 01:23:25;;;;;;;0.20;0.20;;;;;;;20.17;51.02;101315.13;5134126;27;20051;-45
2023/05/09 01:26:31;;;;;;;0.20;0.20;;;;;;;20.15;51.26;101307.09;5102243;28;20441;-45
2023/05/09 01:29:23;;;;;;;0.20;0.20;;;;;;;20.15;51.04;101306.28;5098269;28;20053;-44
2023/05/09 01:31:49;;;;;;;0.20;0.20;;;;;;;20.16;51.07;101313.47;5092423;28;20119;-44
2023/05/09 01:34:17;;;;;;;0.20;0.20;;;;;;;20.16;51.23;101310.69;5094139;28;20574;-43
2023/05/09 01:36:43;;;;;;;0.20;0.20;;;;;;;20.15;51.15;101309.88;5113017;28;20179;-45
2023/05/09 01:39:11;;;;;;;0.20;0.20;;;;;;;20.16;51.19;101299.63;5094293;28;20538;-44
2023/05/09 01:41:37;;;;;;;0.20;0.20;;;;;;;20.15;50.98;101303.50;5094218;28;20039;-44
2023/05/09 01:44:06;;;;;;;0.20;0.20;;;;;;;20.15;51.19;101304.34;5095278;28;20566;-49
2023/05/09 01:46:33;;;;;;;0.20;0.20;;;;;;;20.15;51.19;101292.44;5112865;28;20055;-45
2023/05/09 01:49:00;;;;;;;0.20;0.20;;;;;;;20.15;51.13;101303.50;5112720;28;20043;-45
2023/05/09 01:51:26;;;;;;;0.20;0.20;;;;;;;20.15;51.09;101300.75;5095650;28;20070;-45
2023/05/09 01:53:53;;;;;;;0.20;0.20;;;;;;;20.15;50.85;101293.28;5113402;28;20132;-44
2023/05/09 01:56:20;;;;;;;0.30;0.30;;;;;;;20.15;51.00;101290.50;5112536;28;20046;-48
2023/05/09 01:58:48;;;;;;;0.20;0.20;;;;;;;20.14;51.10;101297.16;5112622;28;20135;-43
2023/05/09 02:01:14;;;;;;;;;;;;;;;20.15;50.96;101309.03;5129715;27;20051;-48
2023/05/09 02:03:42;;;;;;;0.20;0.20;;;;;;;20.14;51.08;101301.88;5133520;27;20433;-44
2023/05/09 02:06:08;;;;;;;0.20;0.20;;;;;;;20.15;51.01;101300.75;5116528;27;20490;-44
2023/05/09 02:08:34;;;;;;;0.20;0.20;;;;;;;20.15;51.03;101300.75;5116151;28;20656;-45
2023/05/09 02:11:00;;;;;;;0.20;0.20;;;;;;;20.14;51.12;101291.63;5130253;27;20498;-44
2023/05/09 02:13:25;;;;;;;0.20;0.20;;;;;;;20.14;51.29;101288.88;5136709;27;20042;-45
2023/05/09 02:15:52;;;;;;;0.20;0.20;;;;;;;20.15;51.07;101284.16;5122926;27;20074;-44
2023/05/09 02:18:18;;;;;;;0.20;0.20;;;;;;;20.14;51.25;101280.56;5116059;28;20046;-45
2023/05/09 02:20:43;;;;;;;0.20;0.20;;;;;;;20.15;51.01;101281.41;5127838;27;20050;-44
2023/05/09 02:23:09;;;;;;;0.20;0.20;;;;;;;20.14;51.32;101286.09;5137231;27;20047;-44
2023/05/09 02:25:35;;;;;;;0.20;0.20;;;;;;;20.14;51.29;101294.38;5125113;27;20035;-47
2023/05/09 02:28:01;;;;;;;0.20;0.20;;;;;;;20.15;50.99;101286.91;5115661;28;20513;-45
2023/05/09 02:30:30;;;;;;;0.20;0.20;;;;;;;20.13;51.14;101297.44;5125118;27;20415;-43
2023/05/09 02:33:00;;;;;;;0.20;0.20;;;;;;;20.14;50.94;101290.81;5111263;27;20060;-45
2023/05/09 02:35:26;;;;;;;0.20;0.20;;;;;;;20.14;50.88;101286.09;5083268;28;20481;-44
2023/05/09 02:37:53;;;;;;;0.20;0.20;;;;;;;20.14;51.11;101286.09;5094605;28;20096;-45
2023/05/09 02:40:19;;;;;;;0.20;0.20;;;;;;;20.14;50.96;101285.28;5112269;27;20502;-44
2023/05/09 02:42:45;;;;;;;0.20;0.20;;;;;;;20.14;50.98;101282.50;5112715;28;20051;-44
2023/05/09 02:45:10;;;;;;;0.20;0.20;;;;;;;20.15;50.93;101281.41;5114899;27;20052;-46
2023/05/09 02:47:37;;;;;;;0.20;0.20;;;;;;;20.13;51.05;101276.16;5115104;28;20502;-48
2023/05/09 02:50:04;;;;;;;0.20;0.20;;;;;;;20.14;50.94;101271.44;5115898;27;20051;-43
2023/05/09 02:52:29;;;;;;;0.20;0.20;;;;;;;20.14;51.19;101282.50;5115185;28;20043;-45
2023/05/09 02:54:55;;;;;;;0.20;0.20;;;;;;;20.13;51.23;101272.56;5093199;28;20051;-48
2023/05/09 02:57:21;;;;;;;0.20;0.20;;;;;;;20.13;51.04;101265.09;5095209;28;20048;-46
2023/05/09 02:59:47;;;;;;;0.20;0.20;;;;;;;20.13;51.27;101270.63;5103505;27;20085;-44
2023/05/09 03:02:13;;;;;;;0.20;0.20;;;;;;;20.13;50.84;101267.84;5135418;27;20464;-47
2023/05/09 03:04:38;;;;;;;0.20;0.20;;;;;;;20.13;50.76;101265.09;5132953;27;20049;-44
2023/05/09 03:07:04;;;;;;;0.20;0.20;;;;;;;20.14;51.01;101274.22;5115387;28;20463;-47
2023/05/09 03:09:30;;;;;;;0.20;0.20;;;;;;;20.12;50.95;101268.97;5098426;27;20074;-47
2023/05/09 03:11:56;;;;;;;0.20;0.20;;;;;;;20.14;51.17;101275.03;5135074;27;20051;-45
2023/05/09 03:14:21;;;;;;;0.20;0.20;;;;;;;20.12;50.96;101274.50;5135745;27;20042;-45
2023/05/09 03:16:47;;;;;;;0.20;0.20;;;;;;;20.13;51.15;101273.38;5114897;27;20035;-48
2023/05/09 03:19:13;;;;;;;0.20;0.20;;;;;;;20.13;50.87;101278.91;5114721;27;20046;-44
2023/05/09 03:21:38;;;;;;;0.20;0.20;;;;;;;20.13;51.08;101267.84;5135152;27;20506;-45
2023/05/09 03:24:06;;;;;;;0.20;0.20;;;;;;;20.12;50.85;101263.44;5135496;27;20112;-47
2023/05/09 03:26:34;;;;;;;0.20;0.20;;;;;;;20.12;51.19;101268.13;5082702;28;20116;-45
2023/05/09 03:29:00;;;;;;;0.20;0.20;;;;;;;20.13;51.01;101269.78;5115317;28;20104;-44
2023/05/09 03:31:26;;;;;;;0.20;0.20;;;;;;;20.12;51.14;101270.88;5117192;27;20483;-43
2023/05/09 03:33:52;;;;;;;0.20;0.20;;;;;;;20.12;50.89;101259.81;5133511;27;20042;-44
2023/05/09 03:36:17;;;;;;;0.20;0.20;;;;;;;20.13;50.96;101265.09;5119972;27;20088;-46
2023/05/09 03:38:43;;;;;;;0.20;0.20;;;;;;;20.12;51.15;101257.06;5115070;27;20410;-45
2023/05/09 03:41:09;;;;;;;0.20;0.20;;;;;;;20.12;50.85;101251.53;5112635;28;20051;-45
2023/05/09 03:43:34;;;;;;;0.20;0.20;;;;;;;20.12;51.26;101252.38;5114564;28;20055;-45
2023/05/09 03:46:00;;;;;;;0.20;0.20;;;;;;;20.12;50.86;101255.16;5114143;28;20112;-44
2023/05/09 03:48:26;;;;;;;0.20;0.20;;;;;;;20.12;51.01;101249.63;5114939;28;20047;-46
2023/05/09 03:50:51;;;;;;;0.20;0.20;;;;;;;20.12;51.06;101243.22;5121948;27;20312;-45
2023/05/09 03:53:17;;;;;;;0.20;0.20;;;;;;;20.12;50.96;101243.22;5114405;28;20047;-44
2023/05/09 03:55:43;;;;;;;0.20;0.20;;;;;;;20.11;51.08;101239.63;5114038;28;20047;-45
2023/05/09 03:58:10;;;;;;;0.20;0.20;;;;;;;20.11;51.00;101238.81;5115116;28;20047;-44
2023/05/09 04:00:36;;;;;;;0.20;0.20;;;;;;;20.12;51.04;101232.16;5125865;27;20139;-44
2023/05/09 04:03:02;;;;;;;0.20;0.20;;;;;;;20.12;50.96;101232.16;5135667;27;20039;-46
2023/05/09 04:05:28;;;;;;;0.20;0.20;;;;;;;20.12;51.10;101227.50;5127698;27;20044;-44
2023/05/09 04:07:53;;;;;;;0.20;0.20;;;;;;;20.12;50.93;101226.63;5114828;28;20436;-47
2023/05/09 04:10:19;;;;;;;0.20;0.20;;;;;;;20.11;50.94;101225.81;5123663;27;20193;-46
2023/05/09 04:12:45;;;;;;;0.20;0.20;;;;;;;20.11;51.10;101223.06;5135319;27;20125;-45
2023/05/09 04:15:11;;;;;;;0.20;0.20;;;;;;;20.11;50.86;101219.47;5130550;27;20043;-44
2023/05/09 04:17:36;;;;;;;0.20;0.20;;;;;;;20.11;51.05;101209.22;5114597;28;20047;-45
2023/05/09 04:20:02;;;;;;;0.20;0.20;;;;;;;20.11;51.00;101205.63;5120714;27;20046;-46
2023/05/09 04:22:28;;;;;;;0.20;0.20;;;;;;;20.10;50.87;101204.81;5134113;27;20113;-45
2023/05/09 04:24:53;;;;;;;0.20;0.20;;;;;;;20.11;50.88;101202.88;5132923;27;20042;-45
2023/05/09 04:27:19;;;;;;;0.20;0.20;;;;;;;20.11;51.13;101200.94;5114226;28;20039;-46
2023/05/09 04:29:45;;;;;;;0.20;0.20;;;;;;;20.10;50.88;101198.47;5118165;27;20049;-47
2023/05/09 04:32:11;;;;;;;0.20;0.20;;;;;;;20.11;51.11;101200.09;5126265;27;20030;-44
2023/05/09 04:34:36;;;;;;;0.20;0.20;;;;;;;20.11;50.97;101202.88;5135031;27;20354;-46
2023/05/09 04:37:02;;;;;;;0.20;0.20;;;;;;;20.12;51.17;101207.28;5114401;27;20058;-47
2023/05/09 04:39:29;;;;;;;0.20;0.20;;;;;;;20.12;51.25;101207.28;5113320;27;20043;-45
2023/05/09 04:41:54;;;;;;;0.20;0.20;;;;;;;20.11;51.07;101205.63;5101692;27;20488;-45
2023/05/09 04:44:21;;;;;;;0.20;0.20;;;;;;;20.12;51.42;101213.66;5098383;27;20058;-45
2023/05/09 04:46:47;;;;;;;0.20;0.20;;;;;;;20.11;51.02;101205.63;5111563;28;20197;-46
2023/05/09 04:49:12;;;;;;;0.20;0.20;;;;;;;20.11;51.39;101206.47;5111439;28;20381;-45
2023/05/09 04:51:38;;;;;;;0.20;0.20;;;;;;;20.11;51.15;101206.47;5114905;27;20043;-46
2023/05/09 04:54:04;;;;;;;0.20;0.20;;;;;;;20.11;51.02;101202.88;5111456;28;20042;-48
2023/05/09 04:56:29;;;;;;;0.20;0.20;;;;;;;20.11;50.98;101203.69;5110643;28;21275;-45
2023/05/09 04:58:55;;;;;;;0.20;0.20;;;;;;;20.12;50.95;101210.91;5111610;28;20053;-44
2023/05/09 05:01:20;;;;;;;0.20;0.20;;;;;;;20.12;51.15;101201.75;5131459;27;20102;-47
2023/05/09 05:03:46;;;;;;;0.20;0.20;;;;;;;20.10;50.90;101196.53;5124107;27;20286;-45
2023/05/09 05:06:12;;;;;;;0.20;0.20;;;;;;;20.11;51.07;101194.56;5112566;28;20423;-47
2023/05/09 05:08:38;;;;;;;0.20;0.20;;;;;;;20.10;51.08;101191.00;5084029;28;20112;-47
2023/05/09 05:11:03;;;;;;;0.20;0.20;;;;;;;20.10;50.85;101191.00;5116807;27;20061;-46
2023/05/09 05:13:29;;;;;;;0.20;0.20;;;;;;;20.11;51.32;101186.28;5101752;27;20047;-45
2023/05/09 05:15:55;;;;;;;0.20;0.20;;;;;;;20.10;50.89;101185.47;5100201;27;20093;-44
2023/05/09 05:18:21;;;;;;;0.20;0.20;;;;;;;20.10;50.97;101173.56;5102817;28;20993;-47
2023/05/09 05:20:46;;;;;;;0.20;0.20;;;;;;;20.10;51.08;101173.56;5096453;27;20373;-47
2023/05/09 05:23:12;;;;;;;0.20;0.20;;;;;;;20.11;51.09;101170.50;5106776;28;20044;-46
2023/05/09 05:25:38;;;;;;;0.20;0.20;;;;;;;20.10;50.67;101171.63;5107472;28;20140;-43
2023/05/09 05:28:03;;;;;;;0.20;0.20;;;;;;;20.11;50.96;101166.94;5104921;27;20475;-44
2023/05/09 05:30:29;;;;;;;0.20;0.20;;;;;;;20.10;51.05;101163.34;5102735;27;20074;-43
2023/05/09 05:32:58;;;;;;;0.20;0.20;;;;;;;20.11;50.88;101165.00;5101260;27;20054;-43
2023/05/09 05:35:23;;;;;;;0.20;0.20;;;;;;;20.10;50.71;101160.56;5105776;27;20043;-45
2023/05/09 05:37:49;;;;;;;0.20;0.20;;;;;;;20.10;50.80;101157.81;5108793;27;20054;-45
2023/05/09 05:40:15;;;;;;;0.20;0.20;;;;;;;20.10;50.83;101157.81;5113868;27;20387;-46
2023/05/09 05:42:40;;;;;;;0.20;0.20;;;;;;;20.10;50.69;101157.81;5101792;27;20047;-44
2023/05/09 05:45:07;;;;;;;0.20;0.20;;;;;;;20.10;50.92;101148.69;5100343;27;20058;-46
2023/05/09 05:47:33;;;;;;;0.30;0.30;;;;;;;20.10;50.87;101155.03;5104658;27;20047;-44
2023/05/09 05:50:00;;;;;;;0.20;0.20;;;;;;;20.10;50.79;101145.94;5090701;27;20054;-44
2023/05/09 05:52:26;;;;;;;0.20;0.20;;;;;;;20.10;50.85;101137.63;5090005;28;20063;-44
2023/05/09 05:54:53;;;;;;;0.20;0.20;;;;;;;20.12;51.18;101141.78;5101936;27;20044;-43
2023/05/09 05:57:18;;;;;;;0.20;0.20;;;;;;;20.11;50.77;101139.28;5102221;27;20046;-45
2023/05/09 05:59:46;;;;;;;0.20;0.20;;;;;;;20.12;51.18;101140.94;5091776;27;20395;-45
2023/05/09 06:02:13;;;;;;;0.20;0.20;;;;;;;20.11;50.73;101142.03;5089266;27;20088;-49
2023/05/09 06:04:38;;;;;;;0.20;0.20;;;;;;;20.10;51.00;101140.41;5068741;28;20046;-43
2023/05/09 06:07:04;;;;;;;0.20;0.20;;;;;;;20.10;50.75;101135.69;5098657;27;20129;-45
2023/05/09 06:09:30;;;;;;;0.20;0.20;;;;;;;20.10;50.84;101130.16;5078490;27;20263;-45
2023/05/09 06:11:56;;;;;;;0.20;0.20;;;;;;;20.10;51.14;101127.41;5107373;27;20088;-44
2023/05/09 06:14:21;;;;;;;0.20;0.20;;;;;;;20.10;50.84;101124.63;5094328;28;20464;-43
2023/05/09 06:16:47;;;;;;;0.20;0.20;;;;;;;20.10;50.84;101116.34;5106486;28;20050;-46
2023/05/09 06:19:13;;;;;;;0.20;0.20;;;;;;;20.12;51.06;101118.81;5107869;28;20548;-43
2023/05/09 06:21:38;;;;;;;0.20;0.20;;;;;;;20.10;50.76;101107.22;5103823;27;20376;-45
2023/05/09 06:24:04;;;;;;;0.20;0.20;;;;;;;20.10;50.76;101108.03;5108226;27;20131;-47
2023/05/09 06:26:39;;;;;;;0.20;0.20;;;;;;;20.11;50.97;101106.09;5102406;27;20150;-44
2023/05/09 06:29:06;;;;;;;0.20;0.20;;;;;;;20.09;50.65;101098.09;5107531;27;20050;-45
2023/05/09 06:31:37;;;;;;;0.20;0.20;;;;;;;20.10;50.93;101091.44;5113954;27;20216;-47
2023/05/09 06:34:03;;;;;;;0.20;0.20;;;;;;;20.11;50.85;101090.34;5088241;27;20092;-44
2023/05/09 06:36:29;;;;;;;0.20;0.20;;;;;;;20.11;51.01;101086.75;5104447;27;20047;-43
2023/05/09 06:38:55;;;;;;;0.20;0.20;;;;;;;20.10;51.01;101088.69;5106098;28;20076;-44
2023/05/09 06:41:21;;;;;;;0.20;0.20;;;;;;;20.10;50.98;101094.22;5098233;27;20569;-46
2023/05/09 06:43:46;;;;;;;0.20;0.20;;;;;;;20.11;50.95;101089.50;5095641;27;20043;-44
2023/05/09 06:46:13;;;;;;;0.20;0.20;;;;;;;20.10;50.93;101083.16;5092219;27;20054;-45
2023/05/09 06:48:39;;;;;;;0.20;0.20;;;;;;;20.13;50.93;101076.25;5104515;27;20051;-46
2023/05/09 06:51:04;;;;;;;0.30;0.30;;;;;;;20.12;50.77;101077.34;5101412;27;20271;-43
2023/05/09 06:53:30;;;;;;;0.20;0.20;;;;;;;20.11;50.93;101070.16;5093477;27;20055;-43
2023/05/09 06:55:56;;;;;;;0.25;0.25;;;;;;;20.13;51.12;101073.47;5088003;27;20047;-46
2023/05/09 06:58:22;;;;;;;0.20;0.20;;;;;;;20.11;50.89;101065.44;5093611;27;20137;-46
2023/05/09 07:00:47;;;;;;;0.20;0.20;;;;;;;20.11;51.06;101073.75;5085012;27;20722;-44
2023/05/09 07:03:14;;;;;;;0.20;0.20;;;;;;;20.11;50.78;101068.22;5080131;27;20051;-44
2023/05/09 07:05:40;;;;;;;0.20;0.20;;;;;;;20.11;50.86;101064.63;5084221;27;20067;-44
2023/05/09 07:08:06;;;;;;;0.20;0.20;;;;;;;20.12;51.18;101057.97;5079294;27;20058;-46
2023/05/09 07:10:32;;;;;;;0.20;0.20;;;;;;;20.11;50.74;101057.16;5088494;27;20151;-43
2023/05/09 07:12:58;;;;;;;0.20;0.20;;;;;;;20.10;50.88;101055.50;5099430;27;20063;-43
2023/05/09 07:15:24;;;;;;;0.20;0.20;;;;;;;20.12;50.81;101057.97;5095702;27;20040;-45
2023/05/09 07:18:06;;;;;;;0.20;0.20;;;;;;;20.10;50.76;101049.97;5092062;27;20106;-44
2023/05/09 07:20:32;;;;;;;0.20;0.20;;;;;;;20.11;50.96;101054.38;5073830;27;20043;-44
2023/05/09 07:22:57;;;;;;;0.20;0.20;;;;;;;20.11;50.96;101048.03;5100777;27;20032;-45
2023/05/09 07:25:23;;;;;;;0.20;0.20;;;;;;;20.11;51.06;101048.03;5099155;27;20054;-44
2023/05/09 07:27:49;;;;;;;0.20;0.20;;;;;;;20.10;50.87;101043.63;5104035;27;20560;-45
2023/05/09 07:30:15;;;;;;;0.20;0.20;;;;;;;20.10;50.76;101036.16;5092323;27;20105;-44
2023/05/09 07:32:41;;;;;;;0.20;0.20;;;;;;;20.10;51.07;101043.63;5100648;27;20047;-45
2023/05/09 07:35:07;;;;;;;0.20;0.20;;;;;;;20.11;51.02;101037.81;5098975;28;20043;-45
2023/05/09 07:37:33;;;;;;;0.20;0.20;;;;;;;20.11;51.04;101031.44;5095299;28;20051;-43
2023/05/09 07:39:59;;;;;;;0.20;0.20;;;;;;;20.11;51.11;101025.91;5106939;27;20047;-43
2023/05/09 07:42:25;;;;;;;0.20;0.20;;;;;;;20.10;50.81;101027.84;5100659;27;20149;-46
2023/05/09 07:44:50;;;;;;;0.20;0.20;;;;;;;20.10;50.94;101024.28;5093584;27;20224;-44
2023/05/09 07:47:16;;;;;;;0.20;0.20;;;;;;;20.10;51.01;101025.09;5100639;28;20524;-46
2023/05/09 07:49:44;;;;;;;0.20;0.20;;;;;;;20.10;50.96;101025.09;5099287;27;20039;-44
2023/05/09 07:52:09;;;;;;;0.20;0.20;;;;;;;20.10;50.92;101007.69;5099074;27;20042;-44
2023/05/09 07:54:35;;;;;;;0.20;0.20;;;;;;;20.10;50.87;101018.75;5099812;27;20047;-45
2023/05/09 07:57:01;;;;;;;0.20;0.20;;;;;;;20.12;51.05;101014.59;5102274;27;20046;-45
2023/05/09 07:59:26;;;;;;;0.20;0.20;;;;;;;20.12;50.84;101006.31;5093880;27;20756;-44
2023/05/09 08:01:52;;;;;;;0.20;0.20;;;;;;;20.13;50.93;101007.94;5097860;27;20047;-44
2023/05/09 08:04:18;;;;;;;0.20;0.20;;;;;;;20.17;51.91;100997.16;5086553;27;20043;-43
2023/05/09 08:06:43;;;;;;;0.20;0.20;;;;;;;20.15;57.24;100994.66;5084236;27;20834;-44
2023/05/09 08:09:09;;;;;;;0.20;0.20;;;;;;;20.19;54.31;100992.97;5083608;27;20092;-45
2023/05/09 08:11:35;;;;;;;0.20;0.20;;;;;;;20.19;53.72;100990.19;5086334;27;20500;-45
2023/05/09 08:14:01;;;;;;;0.20;0.20;;;;;;;20.17;52.87;100986.09;5089950;27;20122;-43
2023/05/09 08:16:26;;;;;;;0.20;0.20;;;;;;;20.16;52.80;100987.19;5090552;27;20047;-43
2023/05/09 08:18:53;;;;;;;0.20;0.20;;;;;;;20.16;52.71;100973.34;5094852;27;20055;-45
2023/05/09 08:21:20;;;;;;;0.20;0.20;;;;;;;20.18;52.46;100971.13;5100328;27;20560;-43
2023/05/09 08:23:47;;;;;;;;;;;;;;;20.17;52.21;100970.31;5099901;27;20694;-46
2023/05/09 08:26:13;;;;;;;0.20;0.20;;;;;;;20.18;52.16;100966.44;5102175;27;19926;-48
2023/05/09 08:28:38;;;;;;;0.20;0.20;;;;;;;20.22;55.08;100961.16;5074281;27;20112;-45
2023/05/09 08:31:04;;;;;;;0.20;0.20;;;;;;;20.23;53.00;100957.28;5089885;27;20043;-45
2023/05/09 08:33:30;;;;;;;0.20;0.20;;;;;;;20.22;52.83;100950.09;5082154;27;22161;-44
2023/05/09 08:35:56;;;;;;;0.20;0.20;;;;;;;20.24;53.64;100959.75;5080031;27;20124;-45
2023/05/09 08:38:23;;;;;;;0.20;0.20;;;;;;;20.23;53.14;100952.56;5080416;27;20047;-44
2023/05/09 08:40:48;;;;;;;0.20;0.20;;;;;;;20.23;53.07;100955.34;5092987;27;20051;-45
2023/05/09 08:43:17;;;;;;;0.20;0.20;;;;;;;20.24;52.88;100942.31;5092833;27;20103;-45
2023/05/09 08:45:49;;;;;;;0.20;0.20;;;;;;;20.23;52.51;100941.50;5091600;27;20449;-45
2023/05/09 08:48:16;;;;;;;0.20;0.20;;;;;;;20.25;54.15;100950.34;5074416;27;20074;-43
2023/05/09 08:50:42;;;;;;;0.20;0.20;;;;;;;20.28;52.97;100937.88;5094303;27;20047;-44
2023/05/09 08:53:09;;;;;;;0.20;0.20;;;;;;;20.27;52.62;100933.47;5094940;27;20256;-43
2023/05/09 08:55:34;;;;;;;0.20;0.20;;;;;;;20.25;52.46;100928.22;5097586;27;20071;-43
2023/05/09 08:58:00;;;;;;;0.20;0.20;;;;;;;20.25;52.34;100924.63;5097395;27;20057;-44
2023/05/09 09:00:26;;;;;;;0.20;0.20;;;;;;;20.26;53.26;100923.53;5087212;27;20052;-45
2023/05/09 09:02:52;;;;;;;0.20;0.20;;;;;;;20.25;52.62;100919.94;5097213;27;20471;-44
2023/05/09 09:05:19;;;;;;;0.20;0.20;;;;;;;20.27;52.57;100914.94;5059269;28;20063;-45
2023/05/09 09:08:06;;;;;;;0.20;0.20;;;;;;;20.26;52.31;100912.47;5082659;27;20781;-44
2023/05/09 09:10:32;;;;;;;0.20;0.20;;;;;;;20.28;52.60;100907.44;5076655;27;20048;-44
2023/05/09 09:12:59;;;;;;;0.20;0.20;;;;;;;20.28;52.31;100907.44;5075750;27;20639;-47
2023/05/09 09:15:28;;;;;;;0.20;0.20;;;;;;;20.28;52.21;100908.28;5075091;27;20568;-43
2023/05/09 09:17:55;;;;;;;0.20;0.20;;;;;;;20.29;52.40;100903.56;5095571;27;20100;-45
2023/05/09 09:20:22;;;;;;;0.20;0.20;;;;;;;20.28;51.92;100908.28;5099520;27;20811;-43
2023/05/09 09:22:50;;;;;;;0.20;0.20;;;;;;;20.30;52.38;100900.53;5099257;27;20054;-43
2023/05/09 09:25:16;;;;;;;0.20;0.20;;;;;;;20.30;52.21;100902.47;5103890;27;20043;-45
2023/05/09 09:27:41;;;;;;;0.20;0.20;;;;;;;20.29;52.23;100898.03;5100265;27;20051;-44
2023/05/09 09:30:09;;;;;;;0.30;0.30;;;;;;;20.29;52.19;100893.34;5100391;27;20058;-43
2023/05/09 09:32:35;;;;;;;0.20;0.20;;;;;;;20.30;52.30;100889.47;5094740;27;20128;-44
2023/05/09 09:35:09;;;;;;;0.20;0.20;;;;;;;20.32;52.28;100886.41;5085921;27;20042;-43
2023/05/09 09:37:39;;;;;;;0.20;0.20;;;;;;;20.31;52.05;100882.00;5073528;27;20438;-45
2023/05/09 09:40:07;;;;;;;0.20;0.20;;;;;;;20.30;52.12;100883.94;5067040;27;20040;-45
2023/05/09 09:42:39;;;;;;;;;;;;;;;20.33;52.08;100884.47;5083949;27;20056;-43
2023/05/09 09:45:12;;;;;;;0.20;0.20;;;;;;;20.32;52.06;100871.75;5086934;27;20033;-45
2023/05/09 09:47:39;;;;;;;0.20;0.20;;;;;;;20.32;51.82;100882.81;5089819;27;20324;-44
2023/05/09 09:50:14;;;;;;;0.20;0.20;;;;;;;20.33;52.34;100873.41;5090108;27;20085;-44
2023/05/09 09:52:51;;;;;;;0.20;0.20;;;;;;;20.34;51.97;100866.78;5093558;27;20136;-45
2023/05/09 09:55:18;;;;;;;0.20;0.20;;;;;;;20.32;52.02;100864.28;5099231;27;20263;-46
2023/05/09 09:57:44;;;;;;;0.20;0.20;;;;;;;20.34;52.53;100864.84;5075676;28;20639;-45
2023/05/09 10:00:12;;;;;;;0.20;0.20;;;;;;;20.34;52.25;100862.06;5099499;27;20136;-45
2023/05/09 10:02:49;;;;;;;0.20;0.20;;;;;;;20.33;52.00;100854.84;5086498;28;20054;-45
2023/05/09 10:05:23;;;;;;;0.20;0.20;;;;;;;20.34;52.29;100853.78;5074780;28;20501;-45
2023/05/09 10:07:58;;;;;;;0.20;0.20;;;;;;;20.33;52.07;100851.28;5099589;27;20307;-47
2023/05/09 10:10:29;;;;;;;0.20;0.20;;;;;;;20.33;51.93;100848.50;5100846;27;20087;-45
2023/05/09 10:12:57;;;;;;;0.20;0.20;;;;;;;20.32;51.79;100847.69;5095909;27;20043;-46
2023/05/09 10:15:24;;;;;;;0.20;0.20;;;;;;;20.34;52.56;100847.41;5097211;27;20043;-44
2023/05/09 10:17:53;;;;;;;0.20;0.20;;;;;;;20.33;52.07;100843.78;5098975;27;20059;-46
2023/05/09 10:20:19;;;;;;;0.20;0.20;;;;;;;20.34;52.41;100847.41;5083775;27;20035;-44
2023/05/09 10:22:45;;;;;;;0.20;0.20;;;;;;;20.33;51.86;100835.50;5092558;27;20070;-45
2023/05/09 10:25:35;;;;;;;0.20;0.20;;;;;;;20.36;53.21;100832.16;5091963;27;20095;-48
2023/05/09 10:28:02;;;;;;;0.20;0.20;;;;;;;20.38;52.07;100823.56;5080340;27;20453;-44
2023/05/09 10:30:32;;;;;;;0.20;0.20;;;;;;;20.37;51.99;100821.91;5102120;27;20050;-43
2023/05/09 10:33:07;;;;;;;0.20;0.20;;;;;;;20.36;52.64;100820.28;5091860;27;20311;-46
2023/05/09 10:35:36;;;;;;;0.20;0.20;;;;;;;20.36;52.01;100825.81;5080560;27;20130;-44
2023/05/09 10:38:02;;;;;;;0.20;0.20;;;;;;;20.36;52.11;100815.56;5089441;27;20168;-44
2023/05/09 10:40:29;;;;;;;0.20;0.20;;;;;;;20.35;51.97;100810.34;5082954;27;20043;-44
2023/05/09 10:42:54;;;;;;;0.20;0.20;;;;;;;20.35;51.93;100800.09;5088559;27;20804;-44
2023/05/09 10:45:20;;;;;;;0.20;0.20;;;;;;;20.36;51.95;100806.44;5092891;27;20043;-43
2023/05/09 10:47:48;;;;;;;0.20;0.20;;;;;;;20.37;51.90;100797.03;5077543;27;20050;-45
2023/05/09 10:50:14;;;;;;;0.10;0.10;;;;;;;20.36;51.97;100792.63;5105430;27;20937;-44
2023/05/09 10:53:07;;;;;;;0.20;0.20;;;;;;;20.37;51.78;100785.97;5094914;27;20482;-44
2023/05/09 10:55:54;;;;;;;0.20;0.20;;;;;;;20.38;51.92;100787.59;5098354;27;20542;-44
2023/05/09 10:58:25;;;;;;;0.20;0.20;;;;;;;20.38;51.96;100780.16;5095513;27;20048;-46
2023/05/09 11:00:52;;;;;;;0.20;0.20;;;;;;;20.37;51.81;100784.03;5081752;28;20449;-44
2023/05/09 11:03:20;;;;;;;0.20;0.20;;;;;;;20.39;52.08;100772.69;5090245;28;20039;-45
2023/05/09 11:05:48;;;;;;;0.20;0.20;;;;;;;20.38;51.85;100769.09;5106961;27;20077;-45
2023/05/09 11:08:19;;;;;;;0.20;0.20;;;;;;;20.37;51.73;100767.41;5087608;28;20499;-43
2023/05/09 11:10:45;;;;;;;0.20;0.20;;;;;;;20.38;51.86;100762.72;5105843;27;20396;-44
2023/05/09 11:13:10;;;;;;;0.10;0.10;;;;;;;20.39;51.71;100761.63;5101105;27;20240;-46
2023/05/09 11:15:50;;;;;;;0.20;0.20;;;;;;;20.39;51.62;100750.56;5104442;27;20456;-46
2023/05/09 11:18:16;;;;;;;0.20;0.20;;;;;;;20.39;51.79;100743.09;5110781;27;20039;-44
2023/05/09 11:20:43;;;;;;;0.20;0.20;;;;;;;20.39;52.16;100731.19;5100537;28;20423;-46
2023/05/09 11:23:10;;;;;;;0.20;0.20;;;;;;;20.39;51.76;100734.78;5087878;28;20630;-44
2023/05/09 11:25:38;;;;;;;0.20;0.20;;;;;;;20.40;51.78;100732.84;5102622;27;21518;-44
2023/05/09 11:28:05;;;;;;;0.20;0.20;;;;;;;20.41;51.79;100731.72;5094181;27;20435;-45